Austwell, Texas
Current Conditions -  °F | °C
As of 11:35 AM on Thursday 23 Oct 2014 (Local Time) from KPKV Reporting Station
Clear Clear  
Wind Chill: 76°   Ceiling: Unl
Heat Index: 78°   Visibility: 10mi
Dew Point: 63°   Wind: 10mph
Humidity: 64%   Direction: 50°NE
Pressure: 30.13"   Gusts: NA
Location:  28.39°N, 96.84°W
Report Text: KPKV 231635Z AUTO 05009KT 10SM CLR 25/17 A3013 RMK AO2 T02450172
Loading
Personal Weather Stations






























Interactive Weather Map
Tropical Storm Tracking
New forecast layout! Learn more

10-Day Weather Forecast

Advertisements
Track Severe Weather on mobile